Time;durP1;ratioP1;P1;durP2;ratioP2;P2;SDS_P1;SDS_P2;PMS_P1;PMS_P2;Temp;Humidity;BMP_temperature;BMP_pressure;BME280_temperature;BME280_humidity;BME280_pressure;Samples;Min_cycle;Max_cycle;Signal;HPM_P1;HPM_P2
2021/12/12 00:01:12;;;;;;;187.18;96.63;;;;;;;3.67;85.20;94363.02;1659418;85;21075;-59
2021/12/12 00:03:46;;;;;;;174.53;92.90;;;;;;;3.67;84.65;94366.50;1677728;83;21943;-60
2021/12/12 00:06:21;;;;;;;164.00;83.10;;;;;;;3.70;84.81;94371.11;1690496;83;21514;-59
2021/12/12 00:08:55;;;;;;;159.12;80.62;;;;;;;3.71;84.34;94372.64;1677224;83;21009;-60
2021/12/12 00:11:26;;;;;;;131.70;73.62;;;;;;;3.66;84.10;94373.12;1707545;83;21475;-59
2021/12/12 00:13:59;;;;;;;171.77;87.62;;;;;;;3.63;84.20;94373.95;1710329;83;21431;-60
2021/12/12 00:16:26;;;;;;;189.52;98.12;;;;;;;3.59;84.01;94384.12;1695864;83;21841;-59
2021/12/12 00:18:53;;;;;;;180.35;91.53;;;;;;;3.52;84.02;94382.84;1708064;83;20992;-60
2021/12/12 00:21:20;;;;;;;141.53;75.20;;;;;;;3.51;84.43;94378.58;1704206;83;21549;-59
2021/12/12 00:23:47;;;;;;;128.78;68.50;;;;;;;3.51;84.16;94375.87;1690612;83;21017;-59
2021/12/12 00:26:13;;;;;;;150.10;79.95;;;;;;;3.45;83.95;94384.14;1711077;83;21426;-60
2021/12/12 00:28:40;;;;;;;152.00;79.65;;;;;;;3.32;84.01;94385.30;1676322;83;21845;-59
2021/12/12 00:31:12;;;;;;;146.15;82.42;;;;;;;3.27;84.26;94377.57;1698208;83;21538;-59
2021/12/12 00:33:42;;;;;;;155.05;84.58;;;;;;;3.26;84.54;94373.92;1687155;83;21518;-59
2021/12/12 00:36:11;;;;;;;135.97;73.12;;;;;;;3.24;84.67;94378.40;1694998;83;21535;-59
2021/12/12 00:38:38;;;;;;;137.15;76.45;;;;;;;3.23;84.58;94387.73;1690918;83;21025;-59
2021/12/12 00:41:09;;;;;;;157.43;83.10;;;;;;;3.19;84.69;94391.67;1678396;83;22334;-59
2021/12/12 00:43:43;;;;;;;147.43;77.78;;;;;;;3.15;84.69;94393.09;1673110;84;21127;-59
2021/12/12 00:46:11;;;;;;;141.62;81.40;;;;;;;3.15;84.91;94386.88;1688669;83;21011;-59
2021/12/12 00:48:40;;;;;;;155.05;84.00;;;;;;;3.13;85.00;94394.09;1693124;83;21578;-60
2021/12/12 00:51:10;;;;;;;141.85;79.80;;;;;;;3.15;85.33;94397.17;1701331;83;21060;-59
2021/12/12 00:53:38;;;;;;;121.67;69.80;;;;;;;3.21;85.26;94391.45;1649358;83;21774;-58
2021/12/12 00:56:06;;;;;;;128.75;70.55;;;;;;;3.20;84.96;94404.86;1671830;83;21923;-58
2021/12/12 00:58:35;;;;;;;108.37;60.50;;;;;;;3.13;84.83;94407.68;1682572;83;20976;-59
2021/12/12 01:01:13;;;;;;;100.75;59.33;;;;;;;3.10;84.96;94405.00;1648836;85;21040;-59
2021/12/12 01:03:48;;;;;;;97.95;58.35;;;;;;;3.11;85.04;94403.81;1689187;83;21004;-60
2021/12/12 01:06:16;;;;;;;123.47;69.17;;;;;;;3.07;84.98;94397.66;1694016;83;23355;-59
2021/12/12 01:08:44;;;;;;;102.17;59.98;;;;;;;3.00;85.03;94396.38;1692756;83;21004;-59
2021/12/12 01:11:16;;;;;;;106.30;61.70;;;;;;;2.98;85.28;94402.81;1686319;83;20984;-59
2021/12/12 01:13:43;;;;;;;121.22;66.90;;;;;;;3.03;85.40;94409.17;1703223;83;21079;-58
2021/12/12 01:16:30;;;;;;;111.83;66.55;;;;;;;3.02;85.30;94400.84;1673629;83;21040;-58
2021/12/12 01:19:08;;;;;;;116.65;65.30;;;;;;;3.03;85.48;94410.53;1707418;83;21173;-60
2021/12/12 01:21:41;;;;;;;109.55;60.83;;;;;;;3.11;85.57;94405.96;1689848;83;20976;-59
2021/12/12 01:24:12;;;;;;;106.45;61.42;;;;;;;3.15;85.42;94408.61;1693320;83;21056;-60
2021/12/12 01:26:39;;;;;;;104.55;56.20;;;;;;;3.09;85.11;94410.25;1696405;83;21060;-59
2021/12/12 01:29:07;;;;;;;96.67;54.13;;;;;;;3.05;85.33;94409.53;1712626;83;21008;-59
2021/12/12 01:31:36;;;;;;;94.10;55.70;;;;;;;3.04;85.18;94406.64;1649363;84;21087;-59
2021/12/12 01:34:12;;;;;;;87.17;52.30;;;;;;;3.01;85.08;94406.06;1691627;83;21432;-64
2021/12/12 01:39:27;;;;;;;91.82;52.38;;;;;;;3.00;85.25;94397.73;1689130;83;21020;-58
2021/12/12 01:42:06;;;;;;;80.38;48.92;;;;;;;2.97;85.58;94393.13;1662868;83;21021;-58
2021/12/12 01:44:59;;;;;;;130.82;67.60;;;;;;;3.01;85.75;94392.48;1671629;83;21448;-59
2021/12/12 01:47:40;;;;;;;102.42;58.58;;;;;;;3.01;85.42;94396.56;1620973;83;21392;-59
2021/12/12 01:50:12;;;;;;;123.72;66.12;;;;;;;3.05;85.69;94391.87;1700441;83;21029;-59
2021/12/12 01:52:39;;;;;;;109.67;61.83;;;;;;;3.05;85.48;94391.27;1672242;83;21155;-57
2021/12/12 01:55:21;;;;;;;106.50;56.02;;;;;;;3.07;85.32;94398.42;1657544;83;20980;-59
2021/12/12 01:57:43;;;;;;;93.00;52.73;;;;;;;3.10;85.46;94392.20;1668094;85;21089;-58
2021/12/12 02:00:21;;;;;;;89.65;50.90;;;;;;;3.11;85.44;94388.88;1705000;83;21012;-58
2021/12/12 02:02:48;;;;;;;83.00;49.65;;;;;;;3.08;85.18;94388.34;1685756;83;21543;-59
2021/12/12 02:05:17;;;;;;;86.20;51.30;;;;;;;3.07;85.20;94390.87;1704085;83;21000;-59
2021/12/12 02:07:52;;;;;;;73.45;44.38;;;;;;;3.07;85.15;94386.80;1708411;83;20964;-59
2021/12/12 02:10:28;;;;;;;78.28;48.05;;;;;;;3.03;85.04;94394.23;1687958;83;21994;-58
2021/12/12 02:12:57;;;;;;;74.50;43.90;;;;;;;2.97;85.35;94389.05;1684516;83;20945;-60
2021/12/12 02:15:24;;;;;;;88.62;51.33;;;;;;;2.98;85.60;94398.16;1717615;83;21503;-59
2021/12/12 02:17:53;;;;;;;85.87;52.13;;;;;;;3.01;85.46;94393.84;1702200;83;21567;-58
2021/12/12 02:20:36;;;;;;;88.25;50.40;;;;;;;3.02;85.55;94385.30;1690554;83;21128;-59
2021/12/12 02:23:06;;;;;;;84.22;48.87;;;;;;;3.08;85.73;94386.38;1643378;86;21185;-60
2021/12/12 02:36:29;;;;;;;72.15;46.33;;;;;;;3.27;84.79;94387.69;1687566;83;21510;-59
2021/12/12 02:38:56;;;;;;;65.65;43.95;;;;;;;3.26;85.17;94386.91;1672770;83;21167;-59
2021/12/12 02:41:25;;;;;;;55.50;37.08;;;;;;;3.35;85.21;94389.91;1686009;83;20999;-58
2021/12/12 02:43:56;;;;;;;56.13;34.83;;;;;;;3.33;84.68;94389.55;1694188;83;21006;-58
2021/12/12 02:46:28;;;;;;;57.10;36.08;;;;;;;3.31;84.66;94389.19;1689353;83;21646;-58
2021/12/12 02:49:06;;;;;;;57.70;37.67;;;;;;;3.30;84.60;94388.23;1670836;84;21169;-59
2021/12/12 02:51:27;;;;;;;67.20;43.00;;;;;;;3.31;84.69;94385.69;1703172;83;21107;-59
2021/12/12 02:53:55;;;;;;;79.82;47.38;;;;;;;3.32;84.35;94389.37;1714252;83;21033;-60
2021/12/12 02:56:27;;;;;;;87.10;53.60;;;;;;;3.26;84.22;94388.27;1678230;83;20965;-60
2021/12/12 02:58:54;;;;;;;86.97;51.30;;;;;;;3.20;84.28;94387.80;1707190;83;20968;-58
2021/12/12 03:01:30;;;;;;;82.62;49.33;;;;;;;3.17;84.37;94385.88;1694909;83;21159;-59
2021/12/12 03:03:58;;;;;;;93.92;52.95;;;;;;;3.12;84.35;94393.13;1690147;83;21103;-58
2021/12/12 03:06:29;;;;;;;80.80;49.30;;;;;;;3.03;84.33;94403.14;1689752;83;21111;-59
2021/12/12 03:09:16;;;;;;;69.47;44.70;;;;;;;3.01;84.61;94397.91;1688022;83;21195;-58
2021/12/12 03:11:46;;;;;;;84.65;49.08;;;;;;;3.00;84.73;94399.09;1698578;83;21436;-60
2021/12/12 03:14:14;;;;;;;70.42;43.35;;;;;;;3.00;84.84;94401.81;1716799;83;21214;-58
2021/12/12 03:16:40;;;;;;;78.75;45.08;;;;;;;3.01;84.97;94404.71;1712988;83;20976;-59
2021/12/12 03:19:08;;;;;;;76.57;46.88;;;;;;;3.05;85.24;94401.38;1695399;83;21036;-59
2021/12/12 03:21:42;;;;;;;84.97;50.92;;;;;;;3.04;85.00;94401.20;1679977;83;20997;-59
2021/12/12 03:24:14;;;;;;;96.02;55.33;;;;;;;3.02;84.93;94403.56;1691327;83;21013;-58
2021/12/12 03:26:42;;;;;;;119.28;61.73;;;;;;;3.00;84.88;94397.73;1685608;83;21138;-58
2021/12/12 03:29:09;;;;;;;105.40;60.38;;;;;;;2.96;84.86;94397.80;1677233;84;20976;-59
2021/12/12 03:31:39;;;;;;;103.15;59.40;;;;;;;2.93;84.88;94397.84;1693774;83;20985;-59
2021/12/12 03:34:14;;;;;;;92.57;47.85;;;;;;;2.94;85.22;94396.66;1696651;83;20961;-59
2021/12/12 03:36:42;;;;;;;102.67;57.98;;;;;;;2.92;85.10;94405.80;1699374;83;21530;-59
2021/12/12 03:39:13;;;;;;;93.90;53.70;;;;;;;2.87;85.19;94413.05;1712613;83;21837;-59
2021/12/12 03:41:41;;;;;;;91.72;52.93;;;;;;;2.85;85.37;94408.62;1713831;83;21035;-59
2021/12/12 03:44:13;;;;;;;93.52;53.58;;;;;;;2.87;85.41;94413.05;1706754;83;21114;-59
2021/12/12 03:46:41;;;;;;;73.62;44.70;;;;;;;2.84;85.40;94413.27;1692504;83;21025;-59
2021/12/12 03:49:07;;;;;;;82.72;49.18;;;;;;;2.81;85.53;94416.02;1709194;83;21012;-59
2021/12/12 03:51:35;;;;;;;76.15;46.58;;;;;;;2.78;85.59;94426.33;1713339;83;21404;-65
2021/12/12 03:54:02;;;;;;;74.47;47.03;;;;;;;2.76;85.72;94421.89;1703460;83;21051;-59
2021/12/12 03:56:29;;;;;;;76.97;48.40;;;;;;;2.76;85.77;94417.83;1713029;83;21538;-59
2021/12/12 03:58:57;;;;;;;70.37;46.40;;;;;;;2.77;85.83;94423.44;1690017;83;20984;-59
2021/12/12 04:01:33;;;;;;;80.87;50.85;;;;;;;2.77;85.89;94411.22;1712752;83;21015;-59
2021/12/12 04:04:26;;;;;;;83.70;51.98;;;;;;;2.77;85.92;94413.93;1714503;83;22060;-62
2021/12/12 04:06:53;;;;;;;;;;;;;;;2.78;85.94;94413.54;1714270;83;21017;-58
2021/12/12 04:09:20;;;;;;;75.28;47.53;;;;;;;2.75;85.96;94416.28;1710098;83;20145;-59
2021/12/12 04:11:54;;;;;;;81.63;47.73;;;;;;;2.69;86.08;94415.95;1680698;83;20993;-59
2021/12/12 04:14:22;;;;;;;76.02;46.80;;;;;;;2.68;86.20;94417.73;1710177;83;21067;-58
2021/12/12 04:16:53;;;;;;;75.28;47.08;;;;;;;2.68;86.28;94419.84;1682818;83;21145;-59
2021/12/12 04:19:21;;;;;;;93.12;51.68;;;;;;;2.72;86.59;94418.45;1696489;83;21072;-59
2021/12/12 04:21:48;;;;;;;85.42;49.38;;;;;;;2.80;86.64;94422.63;1655464;84;21084;-59
2021/12/12 04:24:28;;;;;;;87.53;49.42;;;;;;;2.85;86.80;94416.77;1639730;85;21084;-59
2021/12/12 04:26:55;;;;;;;98.07;59.93;;;;;;;2.91;86.65;94416.48;1662084;84;20962;-60
2021/12/12 04:29:32;;;;;;;73.80;46.00;;;;;;;2.93;86.43;94407.34;1686268;83;21163;-58
2021/12/12 04:32:14;;;;;;;66.05;40.45;;;;;;;2.96;86.26;94410.59;1705484;83;21052;-58
2021/12/12 04:34:46;;;;;;;62.25;39.25;;;;;;;2.93;85.99;94410.06;1713389;83;20990;-59
2021/12/12 04:37:13;;;;;;;53.63;35.88;;;;;;;2.89;86.16;94412.05;1699055;83;21016;-58
2021/12/12 04:39:43;;;;;;;68.37;42.55;;;;;;;2.87;86.08;94413.05;1708505;83;21016;-58
2021/12/12 04:42:21;;;;;;;72.75;42.67;;;;;;;2.81;86.05;94415.44;1687385;83;21122;-59
2021/12/12 04:44:52;;;;;;;80.70;48.25;;;;;;;2.79;86.12;94413.72;1699939;83;21041;-59
2021/12/12 04:50:47;;;;;;;79.50;46.53;;;;;;;2.78;86.16;94424.40;1701147;83;21008;-59
2021/12/12 04:53:18;;;;;;;66.40;39.10;;;;;;;2.76;86.17;94427.33;1693006;83;21420;-59
2021/12/12 04:56:11;;;;;;;66.47;43.23;;;;;;;2.71;86.29;94423.70;1704989;83;21163;-59
2021/12/12 04:58:57;;;;;;;68.60;42.90;;;;;;;2.67;86.44;94423.73;1719407;83;21428;-60
2021/12/12 05:01:32;;;;;;;73.57;43.68;;;;;;;2.70;86.65;94420.81;1679142;83;21004;-58
2021/12/12 05:04:10;;;;;;;50.65;34.67;;;;;;;2.71;86.58;94422.34;1671308;84;21471;-59
2021/12/12 05:06:48;;;;;;;47.70;33.23;;;;;;;2.75;86.54;94424.44;1699926;83;21500;-58
2021/12/12 05:09:23;;;;;;;52.48;36.17;;;;;;;2.69;86.54;94424.09;1692944;83;21188;-59
2021/12/12 05:12:12;;;;;;;57.48;37.48;;;;;;;2.69;86.90;94424.09;1705279;83;21016;-58
2021/12/12 05:14:45;;;;;;;61.83;42.40;;;;;;;2.75;87.05;94432.01;1695936;83;21067;-58
2021/12/12 05:17:23;;;;;;;64.47;42.60;;;;;;;2.87;87.42;94433.42;1697496;83;21052;-59
2021/12/12 05:19:54;;;;;;;65.00;42.85;;;;;;;2.94;87.03;94436.05;1686274;83;21536;-58
2021/12/12 05:22:32;;;;;;;64.58;44.05;;;;;;;2.99;86.77;94435.02;1703572;83;21155;-59
2021/12/12 05:25:02;;;;;;;70.22;46.02;;;;;;;2.99;86.53;94442.39;1678730;83;21146;-58
2021/12/12 05:27:31;;;;;;;72.72;46.92;;;;;;;3.03;86.71;94434.98;1699173;83;21056;-59
2021/12/12 05:30:16;;;;;;;72.50;44.90;;;;;;;3.10;86.68;94437.03;1713088;83;21017;-58
2021/12/12 05:32:42;;;;;;;67.82;41.15;;;;;;;3.15;86.81;94432.50;1715109;83;21056;-58
2021/12/12 05:35:11;;;;;;;62.48;40.52;;;;;;;3.19;86.14;94448.73;1712193;83;21103;-58
2021/12/12 05:37:38;;;;;;;64.53;40.80;;;;;;;3.16;86.03;94447.63;1712964;83;21001;-58
2021/12/12 05:40:09;;;;;;;59.30;39.42;;;;;;;3.20;86.09;94438.83;1702390;83;20992;-59
2021/12/12 05:42:37;;;;;;;53.90;36.85;;;;;;;3.26;85.90;94442.63;1711494;83;21060;-59
2021/12/12 05:45:07;;;;;;;66.90;43.92;;;;;;;3.26;85.26;94445.95;1704174;83;21001;-59
2021/12/12 05:47:36;;;;;;;70.03;45.48;;;;;;;3.16;85.37;94442.77;1704555;83;21099;-59
2021/12/12 05:50:07;;;;;;;67.37;42.93;;;;;;;3.18;85.52;94444.48;1693129;83;21536;-60
2021/12/12 05:52:33;;;;;;;68.52;44.40;;;;;;;3.16;85.10;94446.84;1691735;83;21069;-58
2021/12/12 05:55:01;;;;;;;66.80;43.68;;;;;;;3.09;85.02;94445.58;1683565;83;21456;-59
2021/12/12 05:57:30;;;;;;;64.75;43.98;;;;;;;3.08;85.28;94453.55;1653682;83;20991;-59
2021/12/12 05:59:57;;;;;;;72.67;48.87;;;;;;;3.10;85.23;94447.11;1685191;83;21163;-59
2021/12/12 06:02:25;;;;;;;79.42;52.95;;;;;;;3.07;85.12;94443.86;1680436;83;21068;-60
2021/12/12 06:04:57;;;;;;;90.22;57.75;;;;;;;3.04;85.24;94440.59;1664459;83;21056;-60
2021/12/12 06:07:23;;;;;;;81.28;54.15;;;;;;;3.02;85.21;94451.11;1679357;83;21139;-60
2021/12/12 06:09:51;;;;;;;70.95;48.20;;;;;;;3.02;85.28;94447.03;1677950;84;21064;-58
2021/12/12 06:12:19;;;;;;;75.40;51.95;;;;;;;3.03;85.23;94459.44;1704625;83;21203;-59
2021/12/12 06:14:45;;;;;;;68.33;50.00;;;;;;;3.04;85.31;94450.11;1712215;83;21035;-60
2021/12/12 06:17:14;;;;;;;68.72;47.60;;;;;;;3.03;85.26;94448.57;1716400;83;21011;-60
2021/12/12 06:19:42;;;;;;;55.23;39.15;;;;;;;3.02;85.41;94455.94;1712353;83;21111;-58
2021/12/12 06:22:09;;;;;;;48.13;36.85;;;;;;;3.05;85.51;94455.13;1703625;83;21147;-59
2021/12/12 06:24:37;;;;;;;47.40;35.60;;;;;;;3.10;85.43;94459.34;1721841;83;21153;-60
2021/12/12 06:27:16;;;;;;;59.48;43.85;;;;;;;3.14;85.50;94470.94;1712993;83;20949;-59
2021/12/12 06:29:45;;;;;;;59.35;41.40;;;;;;;3.16;85.23;94471.30;1691654;83;21055;-59
2021/12/12 06:32:13;;;;;;;54.88;39.48;;;;;;;3.15;85.15;94469.19;1687815;83;21039;-59
2021/12/12 06:34:40;;;;;;;56.13;40.83;;;;;;;3.19;85.46;94467.77;1695345;83;21056;-59
2021/12/12 06:37:08;;;;;;;62.35;44.35;;;;;;;3.18;85.15;94473.02;1690352;84;21179;-59
2021/12/12 06:39:37;;;;;;;74.42;47.08;;;;;;;3.15;85.39;94470.55;1682157;84;21115;-60
2021/12/12 06:42:05;;;;;;;56.37;39.95;;;;;;;3.20;85.38;94471.45;1658539;83;21056;-59
2021/12/12 06:44:31;;;;;;;53.10;38.85;;;;;;;3.23;85.15;94476.06;1678658;84;21029;-59
2021/12/12 06:47:00;;;;;;;55.28;41.00;;;;;;;3.26;85.23;94478.56;1711541;83;21088;-60
2021/12/12 06:49:26;;;;;;;54.48;40.08;;;;;;;3.30;85.07;94476.57;1701393;83;22014;-60
2021/12/12 06:51:57;;;;;;;55.17;40.95;;;;;;;3.28;84.87;94466.70;1690374;83;21504;-59
2021/12/12 06:54:26;;;;;;;55.05;40.08;;;;;;;3.33;85.08;94464.30;1663827;84;21016;-59
2021/12/12 06:56:56;;;;;;;56.37;39.05;;;;;;;3.37;84.87;94465.59;1682737;83;21004;-60
2021/12/12 06:59:25;;;;;;;50.73;39.40;;;;;;;3.33;84.45;94467.02;1700465;83;21092;-60
2021/12/12 07:01:52;;;;;;;48.38;35.60;;;;;;;3.29;84.54;94469.59;1695812;83;21492;-60
2021/12/12 07:04:19;;;;;;;96.30;64.53;;;;;;;3.29;84.47;94460.08;1693434;83;21523;-61
2021/12/12 07:06:48;;;;;;;98.20;67.12;;;;;;;3.23;84.46;94457.64;1690433;83;20979;-61
2021/12/12 07:09:15;;;;;;;85.60;55.05;;;;;;;3.20;84.64;94460.57;1712895;83;21011;-58
2021/12/12 07:11:42;;;;;;;75.65;52.25;;;;;;;3.24;84.86;94461.90;1667873;84;21586;-61
2021/12/12 07:14:11;;;;;;;81.02;55.85;;;;;;;3.25;84.74;94460.72;1711269;83;21146;-59
2021/12/12 07:16:37;;;;;;;83.75;57.13;;;;;;;3.30;85.00;94464.34;1695438;83;20945;-60
2021/12/12 07:19:05;;;;;;;98.15;66.30;;;;;;;3.37;84.76;94455.50;1693212;83;20984;-59
2021/12/12 07:21:32;;;;;;;81.12;57.20;;;;;;;3.38;84.58;94461.73;1692062;83;21061;-60
2021/12/12 07:24:01;;;;;;;86.87;61.63;;;;;;;3.44;84.90;94455.41;1694476;83;21631;-59
2021/12/12 07:26:28;;;;;;;112.42;81.82;;;;;;;3.50;84.61;94458.63;1692349;83;21167;-59
2021/12/12 07:28:58;;;;;;;133.65;90.67;;;;;;;3.51;84.30;94458.05;1682867;83;20965;-60
2021/12/12 07:31:32;;;;;;;151.50;101.75;;;;;;;3.51;84.09;94454.72;1680971;83;21507;-60
2021/12/12 07:34:02;;;;;;;133.60;88.12;;;;;;;3.49;83.84;94446.81;1684035;83;21039;-60
2021/12/12 07:36:33;;;;;;;113.35;76.42;;;;;;;3.48;83.79;94449.92;1681000;83;21153;-59
2021/12/12 07:39:05;;;;;;;143.50;92.10;;;;;;;3.46;83.91;94446.84;1667995;84;21504;-61
2021/12/12 07:41:33;;;;;;;104.20;71.05;;;;;;;3.45;84.05;94444.70;1680700;83;21039;-59
2021/12/12 07:44:04;;;;;;;108.45;75.42;;;;;;;3.48;83.86;94443.13;1706509;83;21620;-59
2021/12/12 07:46:31;;;;;;;107.52;70.12;;;;;;;3.42;83.92;94441.45;1674831;83;21524;-59
2021/12/12 07:48:58;;;;;;;100.12;66.90;;;;;;;3.43;84.04;94438.16;1709130;83;20965;-60
2021/12/12 07:51:26;;;;;;;100.62;68.15;;;;;;;3.50;84.20;94447.74;1707913;83;21347;-60
2021/12/12 07:53:57;;;;;;;91.10;60.17;;;;;;;3.52;83.81;94440.55;1711080;83;21444;-59
2021/12/12 07:56:28;;;;;;;95.75;63.42;;;;;;;3.53;83.88;94434.69;1701358;83;20969;-60
2021/12/12 07:58:57;;;;;;;93.22;62.58;;;;;;;3.60;84.03;94436.54;1709929;83;20972;-60
2021/12/12 08:01:25;;;;;;;79.40;52.27;;;;;;;3.64;83.87;94442.11;1675793;83;21028;-59
2021/12/12 08:03:54;;;;;;;90.03;59.80;;;;;;;3.63;83.31;94437.86;1693385;83;21144;-60
2021/12/12 08:06:23;;;;;;;90.85;61.37;;;;;;;3.54;83.19;94432.14;1663694;83;21016;-60
2021/12/12 08:08:50;;;;;;;87.08;56.23;;;;;;;3.49;83.50;94433.22;1683942;83;21091;-62
2021/12/12 08:11:21;;;;;;;108.42;67.22;;;;;;;3.53;83.40;94431.97;1703519;83;21015;-59
2021/12/12 08:13:49;;;;;;;106.75;65.72;;;;;;;3.48;83.27;94430.89;1713162;83;21158;-60
2021/12/12 08:16:16;;;;;;;98.40;65.28;;;;;;;3.45;83.43;94440.62;1694033;83;21794;-68
2021/12/12 08:18:44;;;;;;;107.45;68.12;;;;;;;3.42;83.44;94438.73;1680019;83;21420;-61
2021/12/12 08:21:11;;;;;;;114.67;69.58;;;;;;;3.40;83.89;94443.05;1679139;83;20996;-61
2021/12/12 08:23:38;;;;;;;107.45;67.85;;;;;;;3.47;84.09;94432.07;1692314;83;21067;-61
2021/12/12 08:26:07;;;;;;;99.03;65.37;;;;;;;3.51;83.88;94424.81;1696510;83;21024;-59
2021/12/12 08:28:35;;;;;;;98.20;64.05;;;;;;;3.57;83.69;94429.20;1711810;83;21061;-69
2021/12/12 08:31:02;;;;;;;104.32;69.92;;;;;;;3.59;83.50;94433.64;1705585;83;21128;-59
2021/12/12 08:33:29;;;;;;;125.20;83.27;;;;;;;3.55;83.47;94428.24;1710834;83;21039;-60
2021/12/12 08:35:57;;;;;;;151.72;92.75;;;;;;;3.53;83.49;94431.97;1687806;83;21005;-59
2021/12/12 08:38:24;;;;;;;157.32;101.38;;;;;;;3.54;83.47;94436.22;1688024;83;20969;-59
2021/12/12 08:40:55;;;;;;;59.30;42.10;;;;;;;3.59;83.83;94433.06;1687582;83;21195;-60
2021/12/12 08:43:23;;;;;;;68.02;47.67;;;;;;;3.68;83.65;94433.31;1680142;83;21023;-59
2021/12/12 08:45:54;;;;;;;96.72;63.92;;;;;;;3.78;83.46;94439.20;1662761;83;20992;-59
2021/12/12 08:48:24;;;;;;;124.53;81.30;;;;;;;3.88;83.13;94442.34;1696135;83;21007;-59
2021/12/12 08:50:55;;;;;;;170.43;109.03;;;;;;;3.90;82.76;94434.53;1662387;83;21518;-59
2021/12/12 08:53:22;;;;;;;158.40;101.75;;;;;;;3.95;82.85;94438.16;1704889;83;21138;-60
2021/12/12 08:55:51;;;;;;;177.30;111.62;;;;;;;3.99;82.59;94427.98;1703367;83;20961;-60
2021/12/12 08:58:21;;;;;;;149.00;93.87;;;;;;;4.01;82.32;94424.26;1698052;83;21072;-60
2021/12/12 09:01:02;;;;;;;146.87;93.72;;;;;;;4.01;81.81;94426.98;1655114;85;21016;-60
2021/12/12 09:03:44;;;;;;;138.25;90.62;;;;;;;4.00;81.80;94426.02;1673768;83;21523;-60
2021/12/12 09:06:14;;;;;;;145.40;97.45;;;;;;;3.99;81.56;94427.98;1674260;83;21829;-61
2021/12/12 09:08:53;;;;;;;139.82;89.40;;;;;;;3.91;81.65;94430.63;1692407;83;21068;-59
2021/12/12 09:11:37;;;;;;;132.65;88.67;;;;;;;3.91;81.61;94433.95;1691839;83;21021;-60
2021/12/12 09:14:15;;;;;;;121.95;81.25;;;;;;;3.83;81.69;94435.25;1667829;83;21098;-59
2021/12/12 09:16:57;;;;;;;112.88;75.40;;;;;;;3.80;81.54;94431.39;1693469;83;21519;-59
2021/12/12 09:19:29;;;;;;;109.80;76.60;;;;;;;3.79;81.95;94432.58;1686327;83;21892;-61
2021/12/12 09:22:01;;;;;;;113.50;76.05;;;;;;;3.76;81.59;94427.17;1694404;83;20961;-59
2021/12/12 09:24:46;;;;;;;110.80;73.72;;;;;;;3.70;81.72;94424.75;1693768;83;21071;-60
2021/12/12 09:27:33;;;;;;;117.55;75.10;;;;;;;3.61;81.68;94425.27;1687282;83;21005;-61
2021/12/12 09:30:09;;;;;;;109.32;73.70;;;;;;;3.50;81.90;94421.91;1705078;83;21019;-60
2021/12/12 09:33:04;;;;;;;94.90;61.80;;;;;;;3.46;82.48;94424.49;1676461;84;21212;-59
2021/12/12 09:35:40;;;;;;;109.35;70.97;;;;;;;3.42;82.27;94424.38;1711362;83;21004;-61
2021/12/12 09:38:25;;;;;;;75.40;56.08;;;;;;;3.35;82.53;94420.38;1693682;83;21120;-59
2021/12/12 09:41:07;;;;;;;85.42;58.45;;;;;;;3.27;82.81;94421.67;1689903;83;21024;-59
2021/12/12 09:43:56;;;;;;;50.65;35.17;;;;;;;3.25;83.18;94421.31;1688998;83;20970;-60
2021/12/12 09:47:28;;;;;;;44.93;33.53;;;;;;;3.22;83.24;94409.90;1688950;83;21156;-62
2021/12/12 09:53:31;;;;;;;46.65;36.23;;;;;;;3.13;83.67;94409.61;1689641;83;20988;-60
2021/12/12 09:56:24;;;;;;;56.58;44.67;;;;;;;3.14;83.95;94404.36;1686034;83;21609;-59
2021/12/12 09:59:41;;;;;;;50.03;36.63;;;;;;;3.16;83.96;94400.64;1693107;84;21016;-60
2021/12/12 10:02:32;;;;;;;49.67;38.00;;;;;;;3.15;84.05;94408.61;1703167;83;21135;-60
2021/12/12 10:05:32;;;;;;;41.70;28.52;;;;;;;3.12;84.14;94398.56;1682674;83;21000;-61
2021/12/12 10:08:30;;;;;;;32.83;24.95;;;;;;;3.16;84.43;94408.80;1625163;86;21442;-60
2021/12/12 10:11:17;;;;;;;37.48;28.42;;;;;;;3.25;84.36;94400.92;1645303;86;20985;-59
2021/12/12 10:13:48;;;;;;;29.60;23.73;;;;;;;3.28;84.23;94402.22;1688295;83;21146;-60
2021/12/12 10:16:26;;;;;;;24.37;19.17;;;;;;;3.33;84.40;94393.63;1687880;83;21835;-59
2021/12/12 10:19:01;;;;;;;23.00;18.25;;;;;;;3.44;84.56;94402.38;1702830;83;20988;-60
2021/12/12 10:21:53;;;;;;;15.88;12.88;;;;;;;3.54;84.21;94396.80;1693316;83;21019;-60
2021/12/12 10:24:35;;;;;;;16.95;12.95;;;;;;;3.66;83.77;94391.41;1712854;83;21492;-60
2021/12/12 10:27:43;;;;;;;17.20;13.93;;;;;;;3.68;83.33;94395.23;1694070;83;21503;-60
2021/12/12 10:30:30;;;;;;;17.15;12.90;;;;;;;3.75;83.30;94397.08;1694239;83;21162;-60
2021/12/12 10:33:20;;;;;;;10.38;8.80;;;;;;;3.86;83.03;94401.17;1685240;83;21059;-60
2021/12/12 10:36:13;;;;;;;8.93;8.03;;;;;;;3.86;82.32;94399.81;1649761;86;21204;-61
2021/12/12 10:38:46;;;;;;;9.38;8.35;;;;;;;3.81;82.10;94399.50;1674767;84;21102;-60
2021/12/12 10:41:27;;;;;;;11.10;10.03;;;;;;;3.75;81.83;94401.94;1669502;84;21023;-60
2021/12/12 10:44:02;;;;;;;15.28;13.18;;;;;;;3.72;81.81;94406.82;1679887;85;21265;-61
2021/12/12 10:46:57;;;;;;;22.82;15.88;;;;;;;3.68;82.09;94402.03;1688439;84;21077;-60
2021/12/12 10:49:51;;;;;;;24.40;17.27;;;;;;;3.72;82.08;94407.42;1684287;85;20976;-60
2021/12/12 10:52:23;;;;;;;24.43;18.23;;;;;;;3.77;82.05;94402.30;1689225;84;21034;-60
2021/12/12 10:54:57;;;;;;;24.82;16.37;;;;;;;3.80;81.63;94393.88;1689183;84;21050;-62
2021/12/12 10:57:31;;;;;;;20.00;15.38;;;;;;;3.77;81.60;94399.58;1689103;84;21167;-61
2021/12/12 11:00:15;;;;;;;25.12;18.45;;;;;;;3.79;81.56;94394.48;1685488;85;21406;-60
2021/12/12 11:02:50;;;;;;;22.30;16.85;;;;;;;3.82;81.63;94396.38;1689424;85;20994;-62
2021/12/12 11:05:21;;;;;;;19.30;14.45;;;;;;;3.89;81.45;94392.78;1677891;85;21176;-60
2021/12/12 11:07:52;;;;;;;20.60;15.72;;;;;;;3.88;81.04;94397.45;1688378;85;21064;-60
2021/12/12 11:10:29;;;;;;;17.97;13.73;;;;;;;3.83;80.95;94387.04;1689833;85;21174;-60
2021/12/12 11:13:13;;;;;;;16.30;12.68;;;;;;;3.81;80.84;94383.18;1689555;85;21058;-59
2021/12/12 11:16:06;;;;;;;14.23;11.83;;;;;;;3.80;81.00;94389.80;1664031;85;21090;-58
2021/12/12 11:18:56;;;;;;;14.43;11.53;;;;;;;3.85;81.06;94395.55;1679377;85;21051;-60
2021/12/12 11:21:31;;;;;;;12.13;10.82;;;;;;;3.84;80.88;94397.34;1689647;85;21065;-64
2021/12/12 11:24:18;;;;;;;11.20;8.90;;;;;;;3.80;80.82;94395.24;1689452;85;21190;-60
2021/12/12 11:27:07;;;;;;;11.97;10.72;;;;;;;3.83;80.80;94396.56;1684368;85;21057;-60
2021/12/12 11:29:41;;;;;;;11.97;10.78;;;;;;;3.87;80.53;94391.83;1689439;85;20979;-60
2021/12/12 11:32:19;;;;;;;13.32;11.38;;;;;;;3.86;80.36;94389.53;1689645;85;20967;-60
2021/12/12 11:34:51;;;;;;;18.23;14.30;;;;;;;3.87;80.42;94395.91;1689076;85;21038;-60
2021/12/12 11:37:43;;;;;;;19.57;14.63;;;;;;;3.90;80.31;94376.03;1689646;85;21158;-59
2021/12/12 11:40:32;;;;;;;17.42;13.38;;;;;;;3.86;80.09;94380.77;1686813;83;21038;-60
2021/12/12 11:43:28;;;;;;;14.25;10.65;;;;;;;3.82;80.25;94386.86;1688733;85;20982;-60
2021/12/12 11:45:59;;;;;;;18.90;16.17;;;;;;;3.79;80.09;94387.69;1684467;85;20987;-60
2021/12/12 11:48:50;;;;;;;14.65;10.40;;;;;;;3.73;80.15;94390.68;1689713;85;21531;-61
2021/12/12 11:51:31;;;;;;;14.68;10.32;;;;;;;3.70;80.28;94392.11;1679603;85;21234;-60
2021/12/12 11:54:18;;;;;;;13.48;10.23;;;;;;;3.67;80.25;94399.13;1627227;88;21020;-60
2021/12/12 11:56:53;;;;;;;13.03;10.20;;;;;;;3.57;80.12;94402.80;1682468;84;21183;-60
2021/12/12 11:59:27;;;;;;;11.80;9.85;;;;;;;3.54;80.44;94406.31;1687947;85;21109;-59
2021/12/12 12:02:21;;;;;;;16.25;11.78;;;;;;;3.54;80.33;94403.59;1689335;85;21031;-60
2021/12/12 12:05:00;;;;;;;11.97;10.35;;;;;;;3.56;80.25;94408.05;1689528;85;21494;-60
2021/12/12 12:07:54;;;;;;;17.48;11.63;;;;;;;3.51;80.33;94404.41;1689441;85;21431;-63
2021/12/12 12:10:35;;;;;;;15.05;10.80;;;;;;;3.52;80.49;94399.16;1680442;85;21054;-60
2021/12/12 12:13:34;;;;;;;13.30;10.18;;;;;;;3.53;80.41;94408.09;1689720;85;21035;-59
2021/12/12 12:16:31;;;;;;;10.32;8.78;;;;;;;3.51;80.47;94408.50;1689640;85;21144;-60